Kamishly Airport

Airport
ICAO code: 
OSKL
IATA Code: 
KAC
Summary
ICAO Region: 
MID
Territory: 
Location: 
Qamishli, Al Hasakah
Serving: 
Qamishli
Elevation: 
1480 ft
Coordinates: 
Aerial View: 
37° 1' 14.25" N, 41° 11' 29.018" E
Metar
Observation
OSKL 021100Z 03004KT CAVOK 39/03 Q1000
Station
Kamishli
Date/Time
2022-07-02 11:00:00
Wind direction
30°
Wind speed
04 kts
Lowest cloud amount
clouds and visibility OK
Temperature
39°C
Dew point
3°C
Humidity
10%
QNH
1000 hPa
Weather condition
n/a

Description

Kamishly Airport is an airport serving Qamishli (also known as Kamishli or Qamishli), a city in northeastern Syria.

Runways

Designator Length Width Surface Rops
3/21 3615 46 ASP No/No
Airport map: 
Aerial View: 

SKYbrary Partners:

Safety knowledge contributed by: